Time;durP1;ratioP1;P1;durP2;ratioP2;P2;SDS_P1;SDS_P2;PMS_P1;PMS_P2;Temp;Humidity;BMP_temperature;BMP_pressure;BME280_temperature;BME280_humidity;BME280_pressure;Samples;Min_cycle;Max_cycle;Signal;HPM_P1;HPM_P2
2022/09/07 00:00:50;;;;;;;;;3.00;3.00;;;;;21.69;59.38;100694.16;5094273;27;45268;-60
2022/09/07 00:03:16;;;;;;;;;2.50;2.50;;;;;21.68;59.26;100697.88;5097217;27;45524;-58
2022/09/07 00:05:43;;;;;;;;;2.00;2.00;;;;;21.64;59.36;100691.06;5094418;27;45931;-57
2022/09/07 00:08:11;;;;;;;;;4.75;2.00;;;;;21.64;59.11;100701.91;5096577;27;45747;-57
2022/09/07 00:10:37;;;;;;;;;2.00;2.00;;;;;21.62;59.74;100695.78;5090515;27;45669;-57
2022/09/07 00:13:04;;;;;;;;;2.67;2.67;;;;;21.59;60.06;100693.38;5093408;27;45408;-57
2022/09/07 00:15:29;;;;;;;;;3.00;1.00;;;;;21.59;59.63;100700.63;5082567;27;46065;-57
2022/09/07 00:17:55;;;;;;;;;3.00;2.00;;;;;21.59;59.71;100703.34;5091076;27;45492;-58
2022/09/07 00:20:20;;;;;;;;;2.00;2.00;;;;;21.57;59.66;100700.78;5096191;27;45515;-58
2022/09/07 00:22:46;;;;;;;;;2.50;2.50;;;;;21.57;60.01;100698.09;5095323;27;45480;-56
2022/09/07 00:25:11;;;;;;;;;5.25;3.00;;;;;21.55;60.04;100692.00;5093155;27;45636;-57
2022/09/07 00:27:37;;;;;;;;;5.25;3.00;;;;;21.53;59.95;100683.19;5093242;27;45541;-58
2022/09/07 00:30:04;;;;;;;;;4.33;4.00;;;;;21.53;60.28;100699.41;5094182;27;45291;-59
2022/09/07 00:32:29;;;;;;;;;3.00;2.00;;;;;21.51;60.05;100689.75;5088994;27;45470;-59
2022/09/07 00:34:55;;;;;;;;;3.00;3.00;;;;;21.59;60.02;100690.66;5097550;27;45811;-57
2022/09/07 00:37:20;;;;;;;;;2.25;2.25;;;;;21.61;59.84;100694.06;5083405;27;46254;-59
2022/09/07 00:39:46;;;;;;;;;3.50;2.00;;;;;21.64;60.38;100695.63;5091554;27;45367;-59
2022/09/07 00:42:11;;;;;;;;;2.00;2.00;;;;;21.66;60.05;100705.28;5086483;27;45313;-58
2022/09/07 00:44:36;;;;;;;;;2.00;2.00;;;;;21.69;60.34;100693.31;5094898;27;51458;-57
2022/09/07 00:47:03;;;;;;;;;4.00;2.25;;;;;21.69;60.68;100693.31;5097130;27;45438;-57
2022/09/07 00:49:29;;;;;;;;;4.00;2.50;;;;;21.68;60.58;100694.31;5093904;27;45502;-57
2022/09/07 00:52:00;;;;;;;;;6.00;2.00;;;;;21.69;60.63;100693.31;5080912;27;45565;-57
2022/09/07 00:54:37;;;;;;;;;4.50;3.00;;;;;21.61;59.88;100674.25;5077611;27;46885;-57
2022/09/07 00:57:04;;;;;;;;;2.50;2.50;;;;;21.66;59.97;100691.75;5090416;27;45471;-58
2022/09/07 00:59:35;;;;;;;;;3.00;2.00;;;;;21.58;59.73;100686.25;5092534;27;46746;-58
2022/09/07 01:02:01;;;;;;;;;2.00;2.00;;;;;21.60;59.96;100684.25;5097051;27;45566;-59
2022/09/07 01:04:29;;;;;;;;;1.75;1.75;;;;;21.59;59.48;100687.09;5095123;27;46218;-57
2022/09/07 01:06:55;;;;;;;;;3.00;3.00;;;;;21.48;59.09;100680.06;5092788;27;45503;-58
2022/09/07 01:09:23;;;;;;;;;3.00;1.75;;;;;21.42;59.20;100675.28;5088985;27;45558;-58
2022/09/07 01:11:51;;;;;;;;;3.00;2.00;;;;;21.47;59.01;100690.03;5094935;27;45192;-59
2022/09/07 01:14:26;;;;;;;;;1.00;1.00;;;;;21.45;59.61;100691.19;5086439;27;45412;-58
2022/09/07 01:17:06;;;;;;;;;1.67;1.67;;;;;21.42;59.39;100675.28;5087599;27;45425;-58
2022/09/07 01:19:48;;;;;;;;;5.33;2.00;;;;;21.43;59.69;100685.09;5101921;27;45560;-58
2022/09/07 01:22:50;;;;;;;;;2.67;2.67;;;;;21.43;59.56;100677.84;5095865;27;45418;-60
2022/09/07 01:25:54;;;;;;;;;3.00;2.75;;;;;21.41;59.45;100677.13;5092944;27;48304;-59
2022/09/07 01:28:22;;;;;;;;;1.75;1.75;;;;;21.35;59.78;100677.75;5091732;27;45561;-58
2022/09/07 01:31:10;;;;;;;;;4.75;3.00;;;;;21.36;60.36;100684.03;5093090;27;45513;-58
2022/09/07 01:33:58;;;;;;;;;1.75;1.75;;;;;21.29;59.75;100674.81;5086874;27;45555;-58
2022/09/07 01:36:35;;;;;;;;;2.00;2.00;;;;;21.26;59.56;100675.13;5096289;27;46223;-59
2022/09/07 01:39:02;;;;;;;;;1.00;1.00;;;;;21.22;59.80;100666.41;5089145;27;45392;-59
2022/09/07 01:41:50;;;;;;;;;3.00;2.75;;;;;21.19;59.61;100672.97;5094414;27;45382;-57
2022/09/07 01:44:36;;;;;;;;;1.00;1.00;;;;;21.17;59.52;100668.72;5094860;27;45421;-59
2022/09/07 01:47:01;;;;;;;;;3.00;2.00;;;;;21.12;59.36;100679.16;5087147;27;45692;-58
2022/09/07 01:49:49;;;;;;;;;3.75;2.00;;;;;21.05;58.86;100673.50;5094964;27;45236;-58
2022/09/07 01:52:30;;;;;;;;;1.75;1.75;;;;;21.02;59.03;100673.81;5081137;27;45254;-59
2022/09/07 01:55:09;;;;;;;;;2.00;2.00;;;;;21.06;59.05;100680.59;5076268;27;45332;-57
2022/09/07 01:57:44;;;;;;;;;3.33;2.33;;;;;21.02;59.06;100673.81;5090673;27;46566;-60
2022/09/07 02:00:14;;;;;;;;;2.00;2.00;;;;;21.00;59.55;100673.13;5095499;27;45403;-59
2022/09/07 02:02:48;;;;;;;;;1.25;1.25;;;;;21.00;58.66;100673.13;5098069;27;45802;-58
2022/09/07 02:05:21;;;;;;;;;2.67;0.33;;;;;20.98;58.90;100677.81;5089438;27;45470;-56
2022/09/07 02:07:57;;;;;;;;;1.00;0.00;;;;;20.91;59.03;100676.72;5083174;27;46562;-58
2022/09/07 02:10:32;;;;;;;;;2.25;0.75;;;;;20.91;58.95;100677.56;5091576;27;45464;-58
2022/09/07 02:13:05;;;;;;;;;1.25;1.25;;;;;20.92;59.10;100673.00;5088618;27;45530;-58
2022/09/07 02:15:43;;;;;;;;;3.00;1.00;;;;;20.87;59.40;100668.06;5106754;27;45531;-58
2022/09/07 02:18:13;;;;;;;;;1.50;1.50;;;;;20.79;59.56;100672.50;5077277;27;46181;-59
2022/09/07 02:20:42;;;;;;;;;1.25;1.25;;;;;20.78;59.64;100668.94;5093910;27;45499;-60
2022/09/07 02:23:17;;;;;;;;;1.33;1.00;;;;;20.56;59.68;100645.00;5086942;27;45599;-59
2022/09/07 02:25:47;;;;;;;;;3.00;2.00;;;;;20.47;59.94;100635.13;5092501;27;46595;-59
2022/09/07 02:28:17;;;;;;;;;2.00;1.00;;;;;20.57;59.93;100647.59;5084099;27;46780;-58
2022/09/07 02:30:43;;;;;;;;;2.33;1.00;;;;;20.64;59.89;100668.59;5094288;27;45339;-55
2022/09/07 02:33:09;;;;;;;;;1.00;1.00;;;;;20.64;60.10;100666.75;5085331;27;45527;-57
2022/09/07 02:35:35;;;;;;;;;4.00;2.00;;;;;20.65;60.27;100664.91;5099409;27;45439;-58
2022/09/07 02:38:04;;;;;;;;;2.33;0.00;;;;;20.64;60.15;100663.19;5098440;27;45420;-59
2022/09/07 02:40:30;;;;;;;;;1.33;1.33;;;;;20.60;60.38;100663.50;5097144;27;45351;-56
2022/09/07 02:43:01;;;;;;;;;1.00;1.00;;;;;20.58;60.25;100668.22;5098572;27;45233;-60
2022/09/07 02:45:36;;;;;;;;;1.00;1.00;;;;;20.49;60.48;100660.97;5097317;27;45417;-58
2022/09/07 02:48:25;;;;;;;;;3.33;2.00;;;;;20.53;60.48;100667.78;5097562;27;45522;-58
2022/09/07 02:51:03;;;;;;;;;1.25;1.25;;;;;20.47;60.67;100679.19;5096809;27;45437;-59
2022/09/07 02:53:49;;;;;;;;;4.00;3.00;;;;;20.45;60.55;100670.38;5098127;27;45463;-57
2022/09/07 02:56:39;;;;;;;;;2.00;1.00;;;;;20.41;60.77;100671.63;5097616;27;45353;-59
2022/09/07 02:59:42;;;;;;;;;2.00;2.00;;;;;20.36;60.74;100671.22;5086541;27;45418;-58
2022/09/07 03:02:19;;;;;;;;;1.00;1.00;;;;;20.26;60.63;100660.44;5090080;27;45239;-60
2022/09/07 03:05:18;;;;;;;;;1.67;1.67;;;;;20.30;60.71;100677.19;5088649;27;45294;-58
2022/09/07 03:07:54;;;;;;;;;1.00;1.00;;;;;20.28;60.78;100671.94;5061844;27;45586;-57
2022/09/07 03:10:21;;;;;;;;;3.00;1.33;;;;;20.32;60.94;100675.22;5087128;27;46010;-58
2022/09/07 03:12:48;;;;;;;;;5.00;2.00;;;;;20.34;60.85;100673.22;5092148;27;45453;-58
2022/09/07 03:15:17;;;;;;;;;1.67;1.67;;;;;20.30;60.68;100674.50;5093715;27;45706;-57
2022/09/07 03:17:44;;;;;;;;;1.00;1.00;;;;;20.26;60.91;100676.66;5093448;27;45538;-57
2022/09/07 03:20:09;;;;;;;;;5.00;2.00;;;;;20.27;60.98;100683.75;5098079;27;45487;-57
2022/09/07 03:22:35;;;;;;;;;2.33;1.33;;;;;20.22;61.17;100675.25;5079936;27;45420;-57
2022/09/07 03:25:05;;;;;;;;;3.00;1.67;;;;;20.22;61.14;100677.09;5097231;27;45582;-59
2022/09/07 03:27:31;;;;;;;;;2.00;2.00;;;;;20.23;61.15;100681.50;5095906;27;45534;-57
2022/09/07 03:29:58;;;;;;;;;1.00;1.00;;;;;20.21;61.19;100678.94;5089401;27;45504;-58
2022/09/07 03:32:24;;;;;;;;;4.00;3.00;;;;;20.17;61.32;100688.31;5105872;27;45491;-56
2022/09/07 03:34:50;;;;;;;;;3.33;2.67;;;;;20.13;61.58;100692.31;5095578;27;45798;-57
2022/09/07 03:37:16;;;;;;;;;4.33;2.00;;;;;20.11;61.74;100698.88;5097161;27;45655;-58
2022/09/07 03:39:41;;;;;;;;;2.00;2.00;;;;;20.08;61.37;100694.63;5090787;27;45431;-57
2022/09/07 03:42:06;;;;;;;;;4.00;1.00;;;;;20.06;61.37;100693.91;5084336;27;45343;-57
2022/09/07 03:44:32;;;;;;;;;2.00;2.00;;;;;20.08;61.38;100699.16;5094771;27;45323;-58
2022/09/07 03:46:57;;;;;;;;;1.67;1.00;;;;;20.05;61.36;100692.19;5077995;27;45394;-57
2022/09/07 03:49:22;;;;;;;;;1.00;1.00;;;;;20.02;61.62;100697.88;5094371;27;45614;-59
2022/09/07 03:51:48;;;;;;;;;4.00;1.00;;;;;19.96;61.88;100698.47;5088840;27;45376;-58
2022/09/07 03:54:13;;;;;;;;;3.00;3.00;;;;;19.95;61.75;100704.88;5092016;27;45301;-58
2022/09/07 03:56:39;;;;;;;;;1.67;1.67;;;;;19.88;61.87;100692.91;5095563;27;45222;-57
2022/09/07 03:59:04;;;;;;;;;3.00;2.00;;;;;19.90;62.20;100705.28;5094968;27;45497;-59
2022/09/07 04:01:29;;;;;;;;;3.33;2.67;;;;;19.82;62.36;100699.75;5092775;27;45368;-58
2022/09/07 04:04:01;;;;;;;;;2.00;0.00;;;;;19.80;62.38;100706.28;5077781;27;45398;-59
2022/09/07 04:06:27;;;;;;;;;2.00;2.00;;;;;19.79;62.34;100712.66;5093067;27;45640;-57
2022/09/07 04:08:52;;;;;;;;;1.33;1.33;;;;;19.73;62.80;100708.69;5096451;27;45431;-58
2022/09/07 04:11:18;;;;;;;;;3.33;2.33;;;;;19.70;62.70;100714.38;5098538;27;45333;-59
2022/09/07 04:13:45;;;;;;;;;2.00;2.00;;;;;19.69;63.00;100720.78;5093644;27;45433;-57
2022/09/07 04:16:17;;;;;;;;;1.00;1.00;;;;;19.62;62.95;100715.06;5095046;27;45463;-57
2022/09/07 04:18:43;;;;;;;;;2.33;1.00;;;;;19.63;63.19;100726.72;5097126;27;46266;-58
2022/09/07 04:21:09;;;;;;;;;3.33;2.00;;;;;19.61;63.30;100728.72;5095753;27;45323;-58
2022/09/07 04:23:38;;;;;;;;;2.33;2.33;;;;;19.59;63.44;100736.09;5095210;27;45534;-57
2022/09/07 04:26:04;;;;;;;;;2.00;2.00;;;;;19.54;63.27;100730.25;5094037;27;45582;-56
2022/09/07 04:28:29;;;;;;;;;2.33;2.00;;;;;19.54;63.62;100733.81;5112568;27;46072;-58
2022/09/07 04:30:54;;;;;;;;;1.33;1.33;;;;;19.50;63.21;100736.91;5080972;27;45466;-58
2022/09/07 04:33:20;;;;;;;;;2.00;2.00;;;;;19.47;63.84;100737.19;5096750;27;45392;-57
2022/09/07 04:35:45;;;;;;;;;2.00;2.00;;;;;19.47;63.35;100721.00;5078648;27;45619;-57
2022/09/07 04:38:15;;;;;;;;;2.00;2.00;;;;;19.44;63.55;100728.38;5087461;27;46062;-56
2022/09/07 04:40:41;;;;;;;;;6.00;2.00;;;;;19.47;63.88;100734.47;5090006;27;45356;-59
2022/09/07 04:43:08;;;;;;;;;2.00;1.00;;;;;19.43;63.77;100737.47;5093974;27;45490;-57
2022/09/07 04:45:37;;;;;;;;;1.33;1.00;;;;;19.39;63.94;100744.09;5084547;27;45796;-58
2022/09/07 04:48:03;;;;;;;;;1.00;1.00;;;;;19.33;64.26;100738.44;5096362;27;46141;-59
2022/09/07 04:50:28;;;;;;;;;2.00;2.00;;;;;19.36;64.33;100733.59;5094700;27;45550;-59
2022/09/07 04:52:53;;;;;;;;;1.00;1.00;;;;;19.35;64.47;100740.00;5094261;27;45492;-60
2022/09/07 04:55:19;;;;;;;;;5.00;2.33;;;;;19.35;64.74;100734.59;5093765;27;45347;-55
2022/09/07 04:57:47;;;;;;;;;1.00;1.00;;;;;19.37;64.15;100732.63;5092666;27;46222;-57
2022/09/07 05:00:13;;;;;;;;;4.00;2.00;;;;;19.38;64.02;100736.16;5079377;27;45372;-56
2022/09/07 05:02:39;;;;;;;;;2.67;2.00;;;;;19.39;64.06;100743.25;5089638;27;45458;-58
2022/09/07 05:05:05;;;;;;;;;3.00;3.00;;;;;19.38;64.71;100739.72;5095488;27;45814;-57
2022/09/07 05:07:30;;;;;;;;;2.00;1.00;;;;;19.40;64.14;100737.75;5089623;27;46126;-57
2022/09/07 05:09:56;;;;;;;;;2.00;2.00;;;;;19.38;64.21;100733.47;5090808;27;45578;-58
2022/09/07 05:12:21;;;;;;;;;3.00;1.67;;;;;19.37;64.56;100740.72;5082220;27;45466;-59
2022/09/07 05:14:46;;;;;;;;;1.00;1.00;;;;;19.37;64.93;100735.31;5092541;27;45333;-55
2022/09/07 05:17:12;;;;;;;;;3.00;1.33;;;;;19.39;64.41;100735.16;5095317;27;45968;-57
2022/09/07 05:19:37;;;;;;;;;2.00;2.00;;;;;19.38;64.66;100728.06;5101719;27;45294;-57
2022/09/07 05:22:03;;;;;;;;;2.67;1.00;;;;;19.39;64.51;100738.72;5096051;27;45684;-56
2022/09/07 05:24:28;;;;;;;;;2.67;2.67;;;;;19.37;64.89;100748.78;5093612;27;45679;-58
2022/09/07 05:26:54;;;;;;;;;2.00;2.00;;;;;19.37;65.22;100748.78;5095337;27;46279;-58
2022/09/07 05:29:20;;;;;;;;;2.00;2.00;;;;;19.37;65.12;100747.94;5096244;27;45494;-58
2022/09/07 05:31:46;;;;;;;;;3.00;2.00;;;;;19.40;64.71;100756.63;5107713;27;45450;-56
2022/09/07 05:34:13;;;;;;;;;2.00;2.00;;;;;19.41;64.72;100761.03;5105332;27;46498;-57
2022/09/07 05:36:39;;;;;;;;;2.00;2.00;;;;;19.43;64.83;100761.75;5117011;27;46305;-57
2022/09/07 05:39:07;;;;;;;;;3.00;3.00;;;;;19.47;64.70;100764.16;5116371;27;45423;-59
2022/09/07 05:41:32;;;;;;;;;1.00;1.00;;;;;19.45;64.48;100751.66;5081898;27;45568;-58
2022/09/07 05:43:58;;;;;;;;;2.00;2.00;;;;;19.48;64.57;100755.06;5085748;27;45564;-60
2022/09/07 05:46:24;;;;;;;;;1.33;1.00;;;;;19.51;64.73;100744.84;5073524;27;46463;-62
2022/09/07 05:48:49;;;;;;;;;2.00;2.00;;;;;19.51;64.73;100742.16;5082769;27;45490;-57
2022/09/07 05:51:15;;;;;;;;;7.00;4.00;;;;;19.51;65.04;100744.00;5087285;27;45278;-59
2022/09/07 05:53:43;;;;;;;;;3.67;3.67;;;;;19.49;64.92;100752.22;5089306;27;45370;-58
2022/09/07 05:56:09;;;;;;;;;3.00;2.33;;;;;19.47;64.97;100735.34;5084600;27;47226;-58
2022/09/07 05:58:35;;;;;;;;;3.00;2.00;;;;;19.53;64.91;100742.00;5098616;27;45543;-58
2022/09/07 06:01:05;;;;;;;;;4.67;3.33;;;;;19.57;64.48;100743.47;5085078;27;45324;-69
2022/09/07 06:03:34;;;;;;;;;6.00;3.00;;;;;19.55;64.96;100740.06;5082974;27;45416;-60
2022/09/07 06:06:04;;;;;;;;;5.67;3.00;;;;;19.58;65.06;100748.72;5089624;27;46996;-63
2022/09/07 06:08:31;;;;;;;;;1.67;1.67;;;;;19.60;64.80;100748.59;5086318;27;45402;-58
2022/09/07 06:10:57;;;;;;;;;4.00;2.00;;;;;19.60;64.88;100754.00;5078602;27;45481;-59
2022/09/07 06:13:23;;;;;;;;;6.00;4.33;;;;;19.61;64.96;100751.16;5082516;27;45156;-58
2022/09/07 06:15:48;;;;;;;;;8.00;4.00;;;;;19.63;64.97;100753.69;5094413;27;45382;-61
2022/09/07 06:18:14;;;;;;;;;3.33;2.00;;;;;19.68;64.60;100752.31;5096182;27;45567;-58
2022/09/07 06:20:39;;;;;;;;;3.33;3.33;;;;;19.69;64.51;100753.16;5097147;27;45710;-59
2022/09/07 06:23:06;;;;;;;;;3.33;3.00;;;;;19.65;65.02;100751.72;5095024;27;45395;-58
2022/09/07 06:25:32;;;;;;;;;4.00;2.33;;;;;19.69;64.78;100755.84;5109400;27;46093;-59
2022/09/07 06:27:58;;;;;;;;;1.33;1.33;;;;;19.63;64.75;100748.31;5090808;27;45451;-62
2022/09/07 06:30:24;;;;;;;;;2.67;2.67;;;;;19.61;64.96;100750.28;5098671;27;45232;-59
2022/09/07 06:32:50;;;;;;;;;2.00;2.00;;;;;19.60;64.72;100749.44;5099781;27;45753;-58
2022/09/07 06:35:16;;;;;;;;;4.00;1.67;;;;;19.63;64.63;100749.16;5099490;27;46439;-58
2022/09/07 06:37:41;;;;;;;;;2.67;2.00;;;;;19.67;64.84;100750.59;5098807;27;45500;-62
2022/09/07 06:40:09;;;;;;;;;3.67;2.00;;;;;19.65;64.93;100757.09;5086393;27;45148;-58
2022/09/07 06:42:35;;;;;;;;;5.33;4.00;;;;;19.61;64.90;100753.00;5097638;27;45491;-59
2022/09/07 06:45:01;;;;;;;;;5.33;3.00;;;;;19.56;64.97;100750.72;5098140;27;45999;-58
2022/09/07 06:47:27;;;;;;;;;3.00;3.00;;;;;19.62;65.68;100757.41;5097656;27;45661;-58
2022/09/07 06:49:52;;;;;;;;;5.00;2.00;;;;;19.61;64.89;100744.91;5089395;27;45549;-58
2022/09/07 06:52:17;;;;;;;;;5.00;5.00;;;;;19.56;65.15;100733.69;5090219;27;45463;-59
2022/09/07 06:54:43;;;;;;;;;3.33;2.00;;;;;19.80;64.77;100766.53;5097005;27;45469;-58
2022/09/07 06:57:08;;;;;;;;;6.00;2.67;;;;;19.80;64.63;100750.31;5107938;27;45476;-58
2022/09/07 06:59:38;;;;;;;;;4.67;3.67;;;;;19.94;64.21;100766.09;5091270;27;45314;-58
2022/09/07 07:02:06;;;;;;;;;4.33;2.00;;;;;19.98;64.22;100761.25;5083762;27;45460;-57
2022/09/07 07:04:33;;;;;;;;;5.00;3.67;;;;;19.98;63.85;100754.00;5098145;27;46155;-58
2022/09/07 07:06:59;;;;;;;;;4.67;3.00;;;;;20.02;64.10;100759.97;5095249;27;45489;-58
2022/09/07 07:09:24;;;;;;;;;3.00;3.00;;;;;19.99;64.14;100762.97;5088830;27;45290;-58
2022/09/07 07:11:50;;;;;;;;;4.67;2.00;;;;;19.87;64.25;100735.25;5094329;27;45213;-58
2022/09/07 07:14:16;;;;;;;;;3.00;3.00;;;;;19.98;64.50;100743.22;5098277;27;46359;-58
2022/09/07 07:16:42;;;;;;;;;4.67;3.00;;;;;20.03;64.17;100745.47;5089892;27;45349;-59
2022/09/07 07:19:08;;;;;;;;;4.00;4.00;;;;;20.08;64.14;100745.06;5089559;27;45598;-58
2022/09/07 07:21:33;;;;;;;;;6.33;4.00;;;;;20.16;63.96;100734.38;5096192;27;45564;-58
2022/09/07 07:23:58;;;;;;;;;4.00;4.00;;;;;20.34;63.53;100746.16;5101263;27;45427;-58
2022/09/07 07:26:25;;;;;;;;;7.00;5.00;;;;;20.44;63.50;100743.44;5098614;27;45258;-57
2022/09/07 07:28:53;;;;;;;;;7.67;4.67;;;;;20.55;62.99;100751.38;5094583;27;45438;-59
2022/09/07 07:31:20;;;;;;;;;3.67;3.33;;;;;20.54;63.10;100750.53;5113903;27;45586;-58
2022/09/07 07:33:47;;;;;;;;;4.33;4.00;;;;;20.54;62.87;100745.13;5102089;27;46208;-58
2022/09/07 07:36:16;;;;;;;;;5.67;3.00;;;;;20.65;62.52;100746.81;5110198;27;45364;-57
2022/09/07 07:38:47;;;;;;;;;2.00;2.00;;;;;20.53;62.64;100740.72;5099645;27;45353;-58
2022/09/07 07:41:13;;;;;;;;;5.00;3.67;;;;;20.50;62.53;100732.06;5098402;27;45359;-57
2022/09/07 07:43:39;;;;;;;;;2.00;2.00;;;;;20.59;62.89;100737.47;5095808;27;46503;-59
2022/09/07 07:46:05;;;;;;;;;5.00;3.67;;;;;20.61;62.68;100735.47;5094278;27;45722;-59
2022/09/07 07:48:32;;;;;;;;;6.00;4.00;;;;;20.66;62.79;100736.84;5100265;27;45440;-59
2022/09/07 07:51:06;;;;;;;;;2.67;2.00;;;;;20.75;62.28;100741.38;5097012;27;45734;-61
2022/09/07 07:53:34;;;;;;;;;5.00;3.00;;;;;20.73;62.49;100746.94;5098249;27;46413;-59
2022/09/07 07:56:01;;;;;;;;;8.00;4.00;;;;;20.78;62.21;100746.50;5098556;27;45272;-60
2022/09/07 07:58:27;;;;;;;;;2.00;2.00;;;;;20.83;62.09;100738.78;5098771;27;45244;-60
2022/09/07 08:00:54;;;;;;;;;7.67;3.00;;;;;20.91;62.12;100728.94;5098356;27;45529;-57
2022/09/07 08:03:23;;;;;;;;;3.00;3.00;;;;;20.97;61.68;100729.34;5099254;27;45454;-58
2022/09/07 08:05:48;;;;;;;;;4.00;3.33;;;;;20.98;61.69;100731.91;5092097;27;45411;-59
2022/09/07 08:08:14;;;;;;;;;4.67;3.00;;;;;21.00;61.90;100735.31;5092927;27;45587;-58
2022/09/07 08:10:40;;;;;;;;;5.33;2.67;;;;;21.01;61.79;100730.75;5097709;27;45276;-57
2022/09/07 08:13:05;;;;;;;;;2.00;2.00;;;;;20.91;61.94;100712.72;5106945;27;45951;-60
2022/09/07 08:15:30;;;;;;;;;4.00;2.33;;;;;21.01;62.25;100715.38;5097371;27;45258;-59
2022/09/07 08:17:56;;;;;;;;;7.00;5.00;;;;;21.15;61.94;100722.13;5097427;27;45258;-57
2022/09/07 08:20:22;;;;;;;;;2.33;1.67;;;;;21.23;61.68;100721.38;5092264;27;45209;-58
2022/09/07 08:22:51;;;;;;;;;4.67;2.00;;;;;21.32;61.42;100724.03;5075518;27;45387;-59
2022/09/07 08:25:17;;;;;;;;;2.67;2.67;;;;;21.36;61.24;100721.91;5086377;27;45450;-59
2022/09/07 08:27:42;;;;;;;;;3.33;2.67;;;;;21.44;61.41;100730.09;5096367;27;45522;-60
2022/09/07 08:30:09;;;;;;;;;5.67;4.00;;;;;21.48;61.43;100726.06;5096800;27;45703;-59
2022/09/07 08:32:35;;;;;;;;;4.00;4.00;;;;;21.46;61.40;100726.22;5097174;27;45466;-59
2022/09/07 08:35:01;;;;;;;;;4.00;4.00;;;;;21.53;61.06;100721.06;5097420;27;45340;-59
2022/09/07 08:37:26;;;;;;;;;4.00;4.00;;;;;21.60;61.28;100727.53;5091486;27;45249;-59
2022/09/07 08:39:52;;;;;;;;;3.33;2.00;;;;;21.62;61.13;100724.72;5077593;27;45306;-60
2022/09/07 08:42:45;;;;;;;;;10.00;5.00;;;;;21.68;61.07;100724.94;5084292;27;45519;-59
2022/09/07 08:45:20;;;;;;;;;3.00;1.00;;;;;21.67;61.06;100725.94;5101624;27;45235;-59
2022/09/07 08:47:49;;;;;;;;;6.33;3.00;;;;;21.77;60.80;100728.56;5116974;27;45466;-59
2022/09/07 08:50:44;;;;;;;;;6.00;4.67;;;;;21.85;60.35;100730.50;5097222;27;45411;-58
2022/09/07 08:53:18;;;;;;;;;6.00;2.67;;;;;21.88;60.11;100724.78;5108565;27;45612;-60
2022/09/07 08:56:10;;;;;;;;;4.00;3.00;;;;;21.91;59.91;100729.88;5081972;27;45454;-57
2022/09/07 08:58:52;;;;;;;;;2.00;2.00;;;;;21.99;59.61;100736.19;5093113;27;45340;-57
2022/09/07 09:01:31;;;;;;;;;3.00;3.00;;;;;22.13;59.37;100740.25;5109965;27;45488;-58
2022/09/07 09:03:57;;;;;;;;;7.50;2.00;;;;;22.21;59.25;100725.91;5096830;27;46237;-59
2022/09/07 09:06:40;;;;;;;;;4.25;2.50;;;;;22.32;59.06;100723.81;5097065;27;45380;-60
2022/09/07 09:09:29;;;;;;;;;5.33;4.00;;;;;22.48;58.99;100724.91;5095892;27;45472;-59
2022/09/07 09:12:14;;;;;;;;;7.67;6.00;;;;;22.52;58.34;100723.59;5089198;27;45414;-60
2022/09/07 09:15:04;;;;;;;;;3.00;3.00;;;;;22.45;58.25;100711.69;5087569;27;46135;-59
2022/09/07 09:17:36;;;;;;;;;3.00;3.00;;;;;22.55;58.12;100710.59;5089123;27;45398;-60
2022/09/07 09:20:20;;;;;;;;;6.00;3.75;;;;;22.71;57.95;100696.25;5097299;27;45258;-59
2022/09/07 09:22:45;;;;;;;;;3.50;2.50;;;;;22.81;57.34;100707.84;5097414;27;45457;-59
2022/09/07 09:25:18;;;;;;;;;4.25;3.00;;;;;22.82;57.18;100704.13;5096326;27;45432;-60
2022/09/07 09:27:45;;;;;;;;;6.25;3.25;;;;;22.90;57.05;100704.16;5097253;27;45517;-58
2022/09/07 09:30:16;;;;;;;;;4.00;3.00;;;;;22.93;56.97;100698.44;5092643;27;46203;-59
2022/09/07 09:32:44;;;;;;;;;5.50;1.75;;;;;22.95;56.63;100707.25;5085679;27;45522;-60
2022/09/07 09:35:15;;;;;;;;;5.50;4.50;;;;;23.05;57.08;100712.56;5097057;27;45355;-58
2022/09/07 09:37:41;;;;;;;;;7.00;5.00;;;;;23.04;56.27;100707.28;5095167;27;46429;-58
2022/09/07 09:40:29;;;;;;;;;6.67;6.67;;;;;23.11;56.58;100692.91;5080613;27;45380;-59
2022/09/07 09:43:04;;;;;;;;;2.75;2.75;;;;;23.32;55.52;100700.59;5091369;27;45475;-60
2022/09/07 09:45:34;;;;;;;;;4.50;4.50;;;;;23.32;54.91;100699.75;5099243;27;45454;-59
2022/09/07 09:48:07;;;;;;;;;3.00;3.00;;;;;23.20;55.84;100696.50;5100768;27;45320;-62
2022/09/07 09:50:39;;;;;;;;;8.25;1.25;;;;;23.16;55.87;100686.97;5100701;27;45502;-59
2022/09/07 09:53:05;;;;;;;;;8.25;2.25;;;;;23.27;55.77;100691.25;5099358;27;45623;-59
2022/09/07 09:55:36;;;;;;;;;4.50;3.50;;;;;23.24;55.67;100692.44;5100457;27;45534;-61
2022/09/07 09:58:05;;;;;;;;;5.00;2.00;;;;;23.19;55.55;100700.22;5100326;27;45405;-59
2022/09/07 10:00:32;;;;;;;;;5.00;1.75;;;;;23.04;56.29;100691.84;5100927;27;45341;-62
2022/09/07 10:03:01;;;;;;;;;2.00;2.00;;;;;22.99;55.43;100701.50;5101097;27;45324;-59
2022/09/07 10:05:27;;;;;;;;;3.50;3.50;;;;;22.95;55.39;100690.97;5100343;27;45308;-59
2022/09/07 10:07:53;;;;;;;;;5.25;3.00;;;;;22.89;55.39;100686.19;5100163;27;45338;-60
2022/09/07 10:10:18;;;;;;;;;2.50;2.50;;;;;22.90;56.39;100690.59;5099773;27;45331;-59
2022/09/07 10:12:45;;;;;;;;;7.50;3.75;;;;;22.96;55.83;100683.69;5099980;27;45376;-59
2022/09/07 10:15:34;;;;;;;;;4.00;3.00;;;;;23.01;55.69;100681.34;5099599;27;45372;-59
2022/09/07 10:18:04;;;;;;;;;5.75;3.25;;;;;23.07;54.33;100682.56;5100051;27;45336;-58
2022/09/07 10:20:35;;;;;;;;;3.75;2.25;;;;;23.05;54.51;100676.41;5100253;27;45368;-59
2022/09/07 10:23:03;;;;;;;;;5.00;3.25;;;;;23.04;54.15;100675.56;5115942;27;45337;-59
2022/09/07 10:25:28;;;;;;;;;3.00;2.00;;;;;23.07;54.19;100677.97;5100112;27;46082;-60
2022/09/07 10:28:16;;;;;;;;;5.00;2.25;;;;;23.11;54.63;100675.78;5098196;27;45528;-60
2022/09/07 10:30:56;;;;;;;;;7.75;3.00;;;;;23.17;54.56;100672.38;5098409;27;45456;-58
2022/09/07 10:33:57;;;;;;;;;4.25;4.25;;;;;23.38;54.49;100674.66;5099449;27;45299;-61
2022/09/07 10:36:41;;;;;;;;;3.50;3.25;;;;;23.39;53.71;100662.78;5099527;27;45397;-60
2022/09/07 10:39:13;;;;;;;;;3.50;3.50;;;;;23.38;53.22;100670.06;5099233;27;45395;-59
2022/09/07 10:41:58;;;;;;;;;3.25;2.75;;;;;23.33;53.62;100664.31;5099155;27;45423;-59
2022/09/07 10:44:29;;;;;;;;;5.25;2.25;;;;;23.36;53.24;100669.41;5099834;27;45699;-59
2022/09/07 10:46:59;;;;;;;;;2.25;2.25;;;;;23.43;53.07;100669.56;5099014;27;45278;-60
2022/09/07 10:49:43;;;;;;;;;3.75;3.75;;;;;23.48;52.99;100670.78;5099007;27;45483;-59
2022/09/07 10:52:22;;;;;;;;;5.25;2.00;;;;;23.47;52.81;100666.38;5114633;27;45567;-60
2022/09/07 10:54:54;;;;;;;;;4.75;3.75;;;;;23.54;52.94;100661.94;5098961;27;45510;-60
2022/09/07 10:57:41;;;;;;;;;4.50;4.00;;;;;23.53;52.87;100654.81;5099235;27;45447;-59
2022/09/07 11:00:13;;;;;;;;;5.75;5.75;;;;;23.75;52.81;100664.22;5099158;27;45345;-58
2022/09/07 11:02:45;;;;;;;;;4.00;2.50;;;;;23.76;51.92;100655.03;5099211;27;45525;-60
2022/09/07 11:05:26;;;;;;;;;3.50;3.50;;;;;23.71;51.38;100652.00;5097970;27;45570;-59
2022/09/07 11:08:02;;;;;;;;;4.00;4.00;;;;;23.80;51.36;100660.97;5098748;27;47167;-59
2022/09/07 11:10:58;;;;;;;;;3.25;2.75;;;;;23.88;51.23;100658.25;5098777;27;45409;-59
2022/09/07 11:13:29;;;;;;;;;3.50;2.50;;;;;23.88;51.41;100657.41;5099042;27;45253;-59
2022/09/07 11:15:59;;;;;;;;;4.25;2.75;;;;;23.94;50.24;100643.13;5099129;27;45344;-58
2022/09/07 11:18:48;;;;;;;;;4.75;2.75;;;;;23.97;50.25;100646.38;5098677;27;45318;-61
2022/09/07 11:21:17;;;;;;;;;4.50;3.00;;;;;23.97;50.12;100640.94;5076685;27;45291;-59
2022/09/07 11:24:02;;;;;;;;;9.75;3.00;;;;;23.95;49.94;100645.69;5097330;27;45280;-59
2022/09/07 11:26:39;;;;;;;;;2.25;2.00;;;;;23.94;49.83;100643.13;5097210;27;45604;-59
2022/09/07 11:29:21;;;;;;;;;3.25;3.00;;;;;23.82;50.03;100648.06;5098342;27;45459;-61
2022/09/07 11:31:54;;;;;;;;;3.50;0.75;;;;;23.70;48.88;100650.31;5098307;27;45333;-58
2022/09/07 11:34:34;;;;;;;;;4.00;1.50;;;;;23.61;49.76;100645.88;5098689;27;45434;-59
2022/09/07 11:37:27;;;;;;;;;4.25;2.75;;;;;23.52;50.08;100641.41;5096534;27;45586;-59
2022/09/07 11:40:00;;;;;;;;;4.00;2.75;;;;;23.47;50.74;100646.53;5091215;27;48064;-59